Time;durP1;ratioP1;P1;durP2;ratioP2;P2;SDS_P1;SDS_P2;PMS_P1;PMS_P2;Temp;Humidity;BMP_temperature;BMP_pressure;BME280_temperature;BME280_humidity;BME280_pressure;Samples;Min_cycle;Max_cycle;Signal;HPM_P1;HPM_P2
2022/05/11 00:00:28;;;;;;;3.73;3.23;;;;;;;12.11;67.79;94110.91;4974320;28;20208;-77
2022/05/11 00:03:13;;;;;;;4.97;3.03;;;;;;;11.98;67.51;94105.81;4967883;28;20560;-76
2022/05/11 00:05:57;;;;;;;3.60;2.93;;;;;;;12.12;66.87;94108.84;4972107;28;20409;-76
2022/05/11 00:08:41;;;;;;;3.53;2.70;;;;;;;12.16;66.70;94111.94;4974102;28;20795;-76
2022/05/11 00:11:27;;;;;;;3.07;2.87;;;;;;;12.27;66.36;94111.31;4954856;28;20243;-77
2022/05/11 00:14:12;;;;;;;3.60;3.30;;;;;;;12.20;66.60;94106.59;4946589;28;20208;-77
2022/05/11 00:16:59;;;;;;;4.07;2.83;;;;;;;12.29;66.45;94107.88;4974099;28;20247;-77
2022/05/11 00:19:43;;;;;;;2.53;2.33;;;;;;;12.29;66.40;94102.25;4973059;28;20272;-77
2022/05/11 00:22:27;;;;;;;4.60;3.03;;;;;;;12.16;66.59;94111.94;4971905;28;20308;-77
2022/05/11 00:25:14;;;;;;;2.97;2.70;;;;;;;12.18;66.78;94106.47;4968955;28;20216;-77
2022/05/11 00:27:59;;;;;;;3.77;3.07;;;;;;;12.07;67.17;94102.22;4974512;28;20782;-77
2022/05/11 00:30:44;;;;;;;3.57;2.60;;;;;;;12.04;67.24;94108.28;4953494;28;20674;-77
2022/05/11 00:33:28;;;;;;;4.37;2.70;;;;;;;11.97;67.72;94100.81;4974640;28;20208;-76
2022/05/11 00:36:14;;;;;;;6.33;3.27;;;;;;;11.86;67.94;94102.16;4967960;28;20665;-76
2022/05/11 00:38:58;;;;;;;3.40;3.10;;;;;;;11.85;68.67;94105.59;4949785;28;20243;-76
2022/05/11 00:41:42;;;;;;;4.10;2.83;;;;;;;11.85;67.99;94097.16;4971282;28;20203;-76
2022/05/11 00:44:26;;;;;;;4.30;3.30;;;;;;;11.86;68.05;94095.81;4971228;28;20559;-75
2022/05/11 00:47:14;;;;;;;3.20;2.90;;;;;;;12.16;66.92;94089.47;4954348;28;20208;-77
2022/05/11 00:50:06;;;;;;;3.17;2.87;;;;;;;12.09;67.19;94093.22;4968690;28;20247;-77
2022/05/11 00:52:56;;;;;;;7.17;3.00;;;;;;;11.89;67.89;94094.63;4965752;28;20298;-76
2022/05/11 00:55:46;;;;;;;3.57;2.90;;;;;;;11.91;67.81;94083.53;4970605;28;20239;-76
2022/05/11 00:58:37;;;;;;;3.40;3.10;;;;;;;11.92;68.27;94088.53;4963825;28;20267;-76
2022/05/11 01:01:22;;;;;;;3.57;3.27;;;;;;;11.88;67.98;94084.72;4967038;28;20250;-76
2022/05/11 01:04:15;;;;;;;4.30;2.90;;;;;;;12.06;67.40;94085.97;4977736;28;20207;-77
2022/05/11 01:07:01;;;;;;;5.27;2.63;;;;;;;11.81;67.84;94077.22;4951025;28;20277;-77
2022/05/11 01:09:45;;;;;;;3.13;2.80;;;;;;;11.78;67.67;94078.41;4969113;28;20333;-76
2022/05/11 01:12:41;;;;;;;4.67;3.20;;;;;;;12.02;67.74;94083.63;4939774;28;20267;-76
2022/05/11 01:15:29;;;;;;;4.17;2.83;;;;;;;12.18;66.50;94083.97;4957142;28;20239;-76
2022/05/11 01:18:13;;;;;;;3.50;2.73;;;;;;;12.11;66.63;94077.22;4971027;28;20312;-77
2022/05/11 01:20:59;;;;;;;3.07;2.77;;;;;;;12.02;67.11;94077.28;4971318;28;20212;-76
2022/05/11 01:24:01;;;;;;;2.83;2.33;;;;;;;12.07;66.95;94081.84;4955270;28;20304;-77
2022/05/11 01:26:45;;;;;;;6.30;3.23;;;;;;;12.02;66.52;94077.28;4953756;28;20273;-76
2022/05/11 01:29:29;;;;;;;3.13;2.77;;;;;;;11.88;67.36;94074.22;4969710;28;20327;-77
2022/05/11 01:32:13;;;;;;;5.30;2.83;;;;;;;11.72;67.66;94075.91;4979842;28;20897;-77
2022/05/11 01:35:36;;;;;;;3.50;2.53;;;;;;;11.88;67.49;94076.28;4964787;28;20220;-77
2022/05/11 01:38:29;;;;;;;3.00;2.70;;;;;;;11.88;67.10;94088.28;4968207;28;20200;-76
2022/05/11 01:41:22;;;;;;;2.90;2.57;;;;;;;12.02;66.58;94080.09;4978390;28;20432;-76
2022/05/11 01:44:13;;;;;;;5.23;2.60;;;;;;;12.06;66.26;94083.16;4969418;29;20200;-74
2022/05/11 01:46:59;;;;;;;2.83;2.37;;;;;;;12.29;65.48;94074.16;4966795;28;20204;-76
2022/05/11 01:49:43;;;;;;;2.80;2.50;;;;;;;12.37;65.69;94086.69;4971084;28;20208;-76
2022/05/11 01:52:28;;;;;;;5.30;2.43;;;;;;;12.52;64.16;94080.69;4980067;28;20203;-75
2022/05/11 01:55:12;;;;;;;5.03;3.00;;;;;;;12.61;63.76;94075.59;4976918;28;20663;-75
2022/05/11 01:57:57;;;;;;;2.73;2.23;;;;;;;12.53;64.26;94076.53;4957215;28;20200;-75
2022/05/11 02:00:44;;;;;;;8.40;2.60;;;;;;;12.62;63.75;94086.22;4971319;28;20574;-75
2022/05/11 02:03:28;;;;;;;4.83;2.50;;;;;;;12.70;63.03;94077.59;4964167;28;20340;-75
2022/05/11 02:09:16;;;;;;;2.50;2.20;;;;;;;12.73;62.61;94070.75;4963011;28;20311;-75
2022/05/11 02:12:00;;;;;;;2.90;2.67;;;;;;;12.63;62.78;94078.53;4936655;29;20209;-75
2022/05/11 02:14:45;;;;;;;2.83;2.53;;;;;;;12.45;63.47;94070.38;4976840;28;20224;-75
2022/05/11 02:17:29;;;;;;;2.73;2.33;;;;;;;12.30;64.36;94065.13;4970545;28;20402;-76
2022/05/11 02:20:15;;;;;;;2.53;2.33;;;;;;;11.99;65.21;94070.03;4970598;28;20360;-76
2022/05/11 02:22:59;;;;;;;7.20;2.37;;;;;;;11.84;65.53;94059.94;4950407;28;20595;-76
2022/05/11 02:25:48;;;;;;;6.17;2.90;;;;;;;11.63;66.00;94063.38;4951019;28;20474;-75
2022/05/11 02:28:32;;;;;;;7.23;2.80;;;;;;;11.57;66.83;94059.41;4966460;28;20203;-76
2022/05/11 02:31:17;;;;;;;2.60;2.40;;;;;;;11.45;67.23;94059.28;4967284;28;20696;-75
2022/05/11 02:34:05;;;;;;;3.83;2.67;;;;;;;11.23;67.47;94063.34;4965361;28;20197;-75
2022/05/11 02:36:49;;;;;;;8.70;2.80;;;;;;;11.16;67.89;94064.25;4969449;28;20204;-76
2022/05/11 02:39:33;;;;;;;3.47;3.17;;;;;;;11.09;68.65;94065.13;4936577;29;20201;-74
2022/05/11 02:42:18;;;;;;;4.70;2.93;;;;;;;10.99;68.85;94070.00;4949848;29;20244;-75
2022/05/11 02:45:05;;;;;;;3.43;3.13;;;;;;;10.77;69.47;94067.06;4962593;28;20303;-75
2022/05/11 02:47:52;;;;;;;4.57;2.77;;;;;;;10.63;69.62;94068.09;4969182;28;20207;-75
2022/05/11 02:50:47;;;;;;;6.20;3.57;;;;;;;10.49;70.34;94070.63;4946035;28;20635;-75
2022/05/11 02:53:32;;;;;;;6.70;3.50;;;;;;;10.49;71.77;94060.13;4969510;28;20274;-75
2022/05/11 02:56:16;;;;;;;5.03;2.77;;;;;;;10.34;70.74;94065.28;4962887;28;20267;-75
2022/05/11 02:59:00;;;;;;;3.77;3.27;;;;;;;10.28;71.05;94067.63;4963471;28;20208;-75
2022/05/11 03:01:44;;;;;;;3.93;3.13;;;;;;;10.30;71.46;94070.59;4969784;28;20224;-75
2022/05/11 03:04:28;;;;;;;6.97;3.40;;;;;;;10.11;71.41;94072.00;4953990;28;20549;-75
2022/05/11 03:07:13;;;;;;;6.00;3.37;;;;;;;9.95;71.89;94070.75;4967896;28;20263;-75
2022/05/11 03:09:57;;;;;;;5.60;4.00;;;;;;;9.88;72.31;94068.81;4983398;28;20705;-75
2022/05/11 03:12:41;;;;;;;5.63;3.77;;;;;;;9.83;72.31;94069.84;4988871;28;20199;-75
2022/05/11 03:15:26;;;;;;;4.80;3.90;;;;;;;9.77;72.72;94069.38;4982091;28;20280;-75
2022/05/11 03:18:10;;;;;;;4.93;3.30;;;;;;;9.85;72.68;94067.19;4960430;28;20227;-75
2022/05/11 03:20:58;;;;;;;5.50;3.20;;;;;;;10.06;72.15;94069.47;4961407;28;20733;-75
2022/05/11 03:23:43;;;;;;;5.33;3.40;;;;;;;10.11;72.26;94076.84;4950676;28;20291;-75
2022/05/11 03:26:27;;;;;;;3.67;3.37;;;;;;;9.99;71.74;94078.75;4967999;28;20748;-75
2022/05/11 03:29:12;;;;;;;6.80;3.17;;;;;;;9.85;72.29;94072.78;4973643;28;20211;-75
2022/05/11 03:34:59;;;;;;;3.43;3.13;;;;;;;9.93;71.95;94079.03;4989176;28;20644;-75
2022/05/11 03:37:43;;;;;;;5.87;3.60;;;;;;;9.95;72.15;94076.34;4948580;28;20251;-75
2022/05/11 03:40:27;;;;;;;5.17;3.13;;;;;;;9.92;71.66;94074.75;4975492;28;20199;-73
2022/05/11 03:43:11;;;;;;;10.27;3.47;;;;;;;9.80;71.99;94070.28;4951275;28;20256;-74
2022/05/11 03:45:55;;;;;;;3.03;2.80;;;;;;;9.75;73.02;94069.25;4946156;28;20200;-74
2022/05/11 03:48:40;;;;;;;3.90;2.97;;;;;;;9.63;72.87;94073.88;4966218;28;20196;-74
2022/05/11 03:51:24;;;;;;;4.67;3.30;;;;;;;9.51;73.19;94072.94;4940745;28;20676;-74
2022/05/11 03:54:08;;;;;;;3.27;2.80;;;;;;;9.54;73.33;94071.78;4975459;28;20718;-74
2022/05/11 03:56:52;;;;;;;4.20;3.00;;;;;;;9.51;73.17;94075.75;4970150;28;20787;-74
2022/05/11 03:59:38;;;;;;;3.40;3.10;;;;;;;9.51;73.47;94078.53;4966918;28;20224;-74
2022/05/11 04:02:23;;;;;;;3.70;3.30;;;;;;;9.58;72.98;94077.69;4967933;28;20195;-74
2022/05/11 04:05:09;;;;;;;3.67;3.03;;;;;;;9.65;73.87;94068.44;4969498;28;20195;-77
2022/05/11 04:07:53;;;;;;;2.90;2.70;;;;;;;9.63;73.05;94079.47;4966840;28;20291;-75
2022/05/11 04:10:37;;;;;;;3.60;3.30;;;;;;;9.65;73.42;94076.84;4967643;28;20658;-75
2022/05/11 04:13:21;;;;;;;5.43;3.43;;;;;;;9.72;73.07;94073.19;4949936;29;20212;-75
2022/05/11 04:16:07;;;;;;;4.63;2.90;;;;;;;9.92;72.79;94074.75;4949969;29;20292;-75
2022/05/11 04:18:51;;;;;;;3.40;2.83;;;;;;;9.95;72.50;94075.63;4968319;28;20276;-74
2022/05/11 04:21:35;;;;;;;3.27;2.97;;;;;;;10.12;73.27;94084.66;4974821;28;20200;-75
2022/05/11 04:24:19;;;;;;;4.73;3.20;;;;;;;10.30;72.43;94074.13;4968634;28;20294;-74
2022/05/11 04:27:05;;;;;;;4.97;2.90;;;;;;;10.29;71.67;94081.03;4954046;28;20598;-75
2022/05/11 04:29:49;;;;;;;3.67;3.03;;;;;;;10.49;72.25;94079.03;4970912;28;20243;-75
2022/05/11 04:32:33;;;;;;;5.03;3.10;;;;;;;10.57;71.59;94076.78;4968151;28;20219;-75
2022/05/11 04:35:17;;;;;;;7.70;2.63;;;;;;;10.70;71.14;94081.22;4953773;28;20216;-75
2022/05/11 04:38:03;;;;;;;5.87;2.80;;;;;;;10.82;70.87;94074.44;4968087;28;20212;-75
2022/05/11 04:40:48;;;;;;;3.07;2.87;;;;;;;10.84;70.72;94082.28;4974593;28;20255;-75
2022/05/11 04:43:32;;;;;;;4.27;2.80;;;;;;;10.99;70.63;94086.81;4969497;28;20248;-75
2022/05/11 04:46:16;;;;;;;2.87;2.53;;;;;;;11.25;69.63;94083.09;4968492;28;20196;-76
2022/05/11 04:52:07;;;;;;;6.63;2.77;;;;;;;11.48;69.31;94088.94;4961541;28;20610;-75
2022/05/11 04:54:51;;;;;;;4.47;2.57;;;;;;;11.63;69.39;94091.44;4947129;28;20271;-75
2022/05/11 04:57:36;;;;;;;6.60;2.70;;;;;;;11.85;69.44;94088.75;4967840;28;20308;-74
2022/05/11 05:00:21;;;;;;;6.73;2.10;;;;;;;12.16;68.80;94092.25;4956306;28;20220;-75
2022/05/11 05:03:11;;;;;;;3.33;2.43;;;;;;;12.62;68.00;94096.75;4977929;28;20208;-75
2022/05/11 05:05:55;;;;;;;5.20;2.47;;;;;;;13.06;66.64;94090.50;4987944;28;20711;-75
2022/05/11 05:08:39;;;;;;;4.77;2.50;;;;;;;13.32;65.25;94095.75;4979798;28;20191;-76
2022/05/11 05:11:23;;;;;;;2.93;2.20;;;;;;;13.51;65.12;94094.09;4964598;28;20452;-75
2022/05/11 05:14:08;;;;;;;2.30;1.97;;;;;;;13.64;64.47;94096.34;4976216;28;20280;-75
2022/05/11 05:17:00;;;;;;;4.43;2.93;;;;;;;13.71;65.16;94106.63;4961228;28;20729;-75
2022/05/11 05:19:46;;;;;;;4.47;2.57;;;;;;;13.88;64.35;94103.50;4965887;28;20232;-75
2022/05/11 05:22:30;;;;;;;7.33;2.50;;;;;;;13.84;65.02;94114.47;4966380;28;20545;-75
2022/05/11 05:25:15;;;;;;;10.67;2.87;;;;;;;13.89;64.89;94110.56;4987764;28;20195;-76
2022/05/11 05:31:04;;;;;;;4.40;2.20;;;;;;;13.93;64.79;94105.19;4973222;28;20222;-75
2022/05/11 05:31:13;;;;;;;3.37;1.97;;;;;;;14.11;63.97;94108.41;4946979;28;20255;-75
2022/05/11 05:33:59;;;;;;;2.80;2.20;;;;;;;14.29;64.04;94111.59;4967928;28;20685;-75
2022/05/11 05:36:44;;;;;;;2.50;2.00;;;;;;;14.33;63.10;94118.19;4966556;28;20215;-75
2022/05/11 05:39:28;;;;;;;2.20;1.53;;;;;;;14.55;60.71;94113.19;4953089;28;20196;-75
2022/05/11 05:42:20;;;;;;;3.07;1.90;;;;;;;14.71;58.60;94111.31;4967877;28;20211;-74
2022/05/11 05:45:06;;;;;;;3.20;1.80;;;;;;;15.32;54.68;94117.66;4968025;28;20235;-75
2022/05/11 05:47:50;;;;;;;3.20;1.90;;;;;;;15.41;55.42;94116.03;4985624;28;20336;-76
2022/05/11 05:50:34;;;;;;;5.13;2.20;;;;;;;15.49;55.38;94116.50;4962729;28;20250;-76
2022/05/11 05:53:20;;;;;;;1.93;1.63;;;;;;;15.68;54.62;94128.19;4938813;28;20255;-76
2022/05/11 05:56:04;;;;;;;2.23;1.70;;;;;;;15.94;53.55;94126.09;4979260;28;20211;-75
2022/05/11 05:58:49;;;;;;;3.67;1.90;;;;;;;15.95;53.51;94126.81;4976535;28;20220;-76
2022/05/11 06:01:33;;;;;;;3.70;2.17;;;;;;;16.08;53.05;94128.97;4970075;28;20201;-76
2022/05/11 06:04:17;;;;;;;2.40;2.13;;;;;;;16.38;52.71;94122.09;4963390;28;20204;-76
2022/05/11 06:07:02;;;;;;;2.43;1.70;;;;;;;16.47;52.28;94118.34;4983003;28;20488;-76
2022/05/11 06:09:47;;;;;;;2.20;2.00;;;;;;;16.57;52.25;94121.69;4990549;28;20195;-75
2022/05/11 06:12:31;;;;;;;2.60;1.93;;;;;;;16.78;52.07;94117.84;4990141;28;20267;-76
2022/05/11 06:15:15;;;;;;;6.03;2.50;;;;;;;16.93;50.90;94124.97;4972641;28;20260;-77
2022/05/11 06:18:00;;;;;;;2.13;1.80;;;;;;;17.12;50.04;94120.94;4965042;28;20239;-76
2022/05/11 06:20:44;;;;;;;3.20;1.90;;;;;;;17.19;49.55;94119.88;4970586;28;20203;-77
2022/05/11 06:23:28;;;;;;;2.30;1.90;;;;;;;17.32;49.49;94122.69;4966941;28;20445;-76
2022/05/11 06:26:13;;;;;;;2.10;1.90;;;;;;;17.40;50.26;94125.91;4974975;28;20251;-76
2022/05/11 06:28:57;;;;;;;4.80;2.37;;;;;;;17.47;50.13;94126.22;4951814;29;20204;-77
2022/05/11 06:31:42;;;;;;;5.93;1.83;;;;;;;17.70;48.91;94128.78;4937014;29;20260;-77
2022/05/11 06:34:25;;;;;;;2.60;1.90;;;;;;;17.85;49.29;94136.59;4957919;28;20212;-77
2022/05/11 06:37:10;;;;;;;2.47;1.83;;;;;;;18.01;48.43;94131.72;4969759;28;20283;-77
2022/05/11 06:39:54;;;;;;;2.70;2.10;;;;;;;18.01;49.57;94137.38;4969353;28;20208;-77
2022/05/11 06:42:38;;;;;;;3.03;2.00;;;;;;;18.17;48.49;94129.63;4989521;28;20254;-77
2022/05/11 06:45:23;;;;;;;4.77;2.03;;;;;;;18.31;48.82;94128.81;4948428;28;20212;-77
2022/05/11 06:48:08;;;;;;;3.87;1.93;;;;;;;18.29;49.06;94128.72;4955462;28;20302;-77
2022/05/11 06:50:52;;;;;;;4.23;2.43;;;;;;;18.27;49.17;94131.47;4969929;28;20223;-77
2022/05/11 06:59:42;;;;;;;3.20;2.27;;;;;;;18.61;50.62;94135.88;4955666;28;20252;-77
2022/05/11 07:02:26;;;;;;;3.77;2.47;;;;;;;18.82;49.64;94134.69;4955344;28;20332;-77
2022/05/11 07:05:11;;;;;;;6.90;2.30;;;;;;;18.77;50.11;94127.34;4954519;28;20514;-77
2022/05/11 07:07:55;;;;;;;3.60;2.20;;;;;;;18.91;49.39;94120.19;4956242;28;20247;-77
2022/05/11 07:12:17;;;;;;;6.73;2.50;;;;;;;19.34;49.52;94124.84;4954501;28;20717;-77
2022/05/11 07:13:53;;;;;;;4.50;2.33;;;;;;;19.41;48.86;94126.56;4965800;28;20578;-77
2022/05/11 07:16:37;;;;;;;5.13;2.63;;;;;;;19.83;49.07;94127.56;4976309;28;20228;-77
2022/05/11 07:19:23;;;;;;;3.95;2.60;;;;;;;20.16;48.57;94118.22;4955539;28;20601;-77
2022/05/11 07:22:07;;;;;;;2.75;2.47;;;;;;;19.90;48.62;94108.66;4950965;28;20197;-77
2022/05/11 07:24:51;;;;;;;2.50;2.30;;;;;;;20.48;47.49;94113.78;4954625;28;20240;-77
2022/05/11 07:27:36;;;;;;;3.67;2.13;;;;;;;20.51;48.04;94109.63;4968825;28;20224;-77
2022/05/11 07:30:27;;;;;;;3.47;2.50;;;;;;;20.68;48.08;94113.06;4941316;28;20203;-78
2022/05/11 07:33:11;;;;;;;5.15;2.35;;;;;;;21.20;46.29;94114.22;4969880;28;20216;-77
2022/05/11 07:35:56;;;;;;;3.33;2.20;;;;;;;21.39;46.43;94119.91;4974843;28;20299;-78
2022/05/11 07:38:40;;;;;;;2.30;2.10;;;;;;;21.72;44.74;94121.00;4967363;28;20202;-78
2022/05/11 07:41:25;;;;;;;3.40;2.40;;;;;;;21.63;45.21;94122.09;4961806;28;20207;-78
2022/05/11 07:44:09;;;;;;;3.40;2.28;;;;;;;21.15;45.89;94110.53;4969608;28;20204;-78
2022/05/11 07:46:53;;;;;;;2.72;2.25;;;;;;;21.93;44.82;94114.53;4972460;28;20684;-77
2022/05/11 07:49:39;;;;;;;1.92;1.83;;;;;;;21.89;42.90;94114.41;4970663;28;20292;-77
2022/05/11 07:52:23;;;;;;;1.98;1.77;;;;;;;22.07;42.25;94112.16;4953415;28;20314;-78
2022/05/11 07:55:07;;;;;;;5.10;1.75;;;;;;;23.52;40.61;94120.63;4967648;28;20521;-79
2022/05/11 08:00:55;;;;;;;2.38;1.73;;;;;;;23.59;39.07;94119.38;4969241;28;20256;-79
2022/05/11 08:03:39;;;;;;;2.03;1.83;;;;;;;23.02;40.47;94117.16;4968999;28;20212;-78
2022/05/11 08:06:23;;;;;;;8.75;1.77;;;;;;;23.96;38.59;94120.31;4969086;28;20255;-79
2022/05/11 08:09:08;;;;;;;2.67;1.90;;;;;;;24.96;37.14;94118.31;4975264;28;20351;-80
2022/05/11 08:11:54;;;;;;;3.95;1.70;;;;;;;25.09;37.32;94120.00;4949466;29;20269;-79
2022/05/11 08:14:38;;;;;;;3.33;1.80;;;;;;;24.76;37.74;94114.97;4935840;29;20240;-78
2022/05/11 08:17:29;;;;;;;3.63;1.77;;;;;;;24.00;38.88;94118.28;4940022;28;20208;-79
2022/05/11 08:20:17;;;;;;;4.13;1.63;;;;;;;24.57;37.18;94113.84;4969508;28;20232;-80
2022/05/11 08:23:04;;;;;;;5.15;2.35;;;;;;;23.88;39.76;94117.25;4969164;28;20271;-80
2022/05/11 08:25:51;;;;;;;3.38;1.80;;;;;;;24.02;39.54;94114.72;4969703;28;20460;-80
2022/05/11 08:28:36;;;;;;;4.05;1.73;;;;;;;24.54;38.07;94113.09;4963991;28;20196;-81
2022/05/11 08:34:23;;;;;;;1.98;1.65;;;;;;;25.46;37.32;94117.84;4987102;28;20667;-80
2022/05/11 08:37:07;;;;;;;3.28;2.03;;;;;;;25.02;37.89;94118.44;4953609;28;20666;-80
2022/05/11 08:39:51;;;;;;;3.10;2.22;;;;;;;25.43;36.73;94116.34;4960074;28;20199;-80
2022/05/11 08:42:35;;;;;;;7.45;2.00;;;;;;;24.55;38.50;94111.69;4987361;28;20287;-80
2022/05/11 08:45:19;;;;;;;2.70;1.90;;;;;;;25.08;37.77;94112.81;4973435;28;20196;-80
2022/05/11 08:48:09;;;;;;;3.58;2.50;;;;;;;24.70;39.03;94109.13;4984223;28;20227;-79
2022/05/11 08:50:53;;;;;;;5.30;1.77;;;;;;;24.67;38.84;94099.03;4951871;28;20204;-80
2022/05/11 08:53:41;;;;;;;2.42;1.98;;;;;;;24.12;40.34;94107.13;4967994;28;20192;-80
2022/05/11 08:56:29;;;;;;;2.33;1.83;;;;;;;24.41;39.97;94102.78;4954369;28;20224;-80
2022/05/11 08:59:21;;;;;;;2.42;1.80;;;;;;;24.46;38.43;94103.59;4965876;28;20229;-80
2022/05/11 09:02:42;;;;;;;3.20;2.10;;;;;;;24.29;39.36;94113.97;4975141;28;20219;-81
2022/05/11 09:05:31;;;;;;;2.88;1.70;;;;;;;24.85;37.60;94102.28;4959634;28;20583;-80
2022/05/11 09:08:15;;;;;;;2.80;1.80;;;;;;;24.94;37.13;94104.66;4967323;28;20256;-82
2022/05/11 09:11:00;;;;;;;2.65;2.05;;;;;;;25.22;36.42;94104.50;4944809;28;20203;-82
2022/05/11 09:13:44;;;;;;;1.75;1.65;;;;;;;25.80;35.37;94098.38;4969558;28;20203;-82
2022/05/11 09:16:47;;;;;;;4.60;1.73;;;;;;;25.83;36.07;94099.88;4953919;28;20267;-82
2022/05/11 09:19:34;;;;;;;5.47;1.60;;;;;;;26.08;34.83;94101.72;4959783;28;20279;-82
2022/05/11 09:22:24;;;;;;;3.20;1.52;;;;;;;25.81;34.29;94102.69;4977735;28;20684;-83
2022/05/11 09:25:24;;;;;;;3.47;2.05;;;;;;;25.33;34.96;94103.25;4967337;28;20626;-83
2022/05/11 09:28:36;;;;;;;2.60;1.70;;;;;;;25.92;33.95;94103.63;4966335;28;20673;-83
2022/05/11 09:31:26;;;;;;;2.50;1.88;;;;;;;26.08;32.92;94113.22;4958919;28;20259;-83
2022/05/11 09:34:14;;;;;;;3.20;1.65;;;;;;;25.55;34.61;94094.31;4954625;28;20437;-84
2022/05/11 09:37:19;;;;;;;3.67;1.80;;;;;;;26.76;32.91;94094.81;4970894;28;20461;-83
2022/05/11 09:40:16;;;;;;;2.55;1.90;;;;;;;26.56;33.83;94095.25;4961504;28;20633;-82
2022/05/11 09:43:05;;;;;;;5.57;1.70;;;;;;;27.17;32.25;94096.06;4975279;28;20205;-84
2022/05/11 09:45:49;;;;;;;1.58;1.48;;;;;;;27.22;32.07;94091.81;4956788;28;20243;-84
2022/05/11 09:48:37;;;;;;;5.07;1.67;;;;;;;27.13;31.96;94096.03;4952853;28;20657;-84
2022/05/11 09:51:24;;;;;;;4.03;2.88;;;;;;;27.79;30.41;94096.00;4979628;28;20870;-83
2022/05/11 09:54:19;;;;;;;2.38;1.73;;;;;;;27.27;30.56;94084.69;4971404;28;20200;-84
2022/05/11 09:57:09;;;;;;;6.78;2.92;;;;;;;27.88;30.17;94099.72;4972104;28;20197;-85
2022/05/11 10:00:18;;;;;;;1.58;1.48;;;;;;;28.23;28.64;94089.19;4960059;28;20254;-84
2022/05/11 10:03:08;;;;;;;2.35;1.45;;;;;;;28.40;28.16;94082.84;4959692;28;20204;-84
2022/05/11 10:05:53;;;;;;;1.60;1.50;;;;;;;27.76;29.94;94095.28;4957443;28;20192;-83
2022/05/11 10:08:43;;;;;;;2.42;1.60;;;;;;;27.22;29.76;94080.31;4970736;28;20259;-84
2022/05/11 10:11:39;;;;;;;5.78;1.90;;;;;;;27.87;29.33;94080.97;4944028;28;20197;-84
2022/05/11 10:23:52;;;;;;;3.28;1.50;;;;;;;29.35;27.35;94068.94;4963455;28;20227;-84
2022/05/11 10:26:53;;;;;;;3.25;1.27;;;;;;;29.81;26.46;94066.84;4975444;28;20246;-84
2022/05/11 10:29:43;;;;;;;4.18;1.35;;;;;;;29.31;27.52;94068.91;4955963;28;20259;-84
2022/05/11 10:32:40;;;;;;;3.33;1.50;;;;;;;28.50;28.17;94077.16;4954046;28;20625;-85
2022/05/11 10:35:42;;;;;;;2.13;1.50;;;;;;;29.40;26.49;94072.53;4972531;28;20724;-85
2022/05/11 10:38:49;;;;;;;1.52;1.40;;;;;;;28.51;26.88;94069.97;4953188;28;20207;-84
2022/05/11 10:41:39;;;;;;;4.43;1.60;;;;;;;30.05;26.37;94064.72;4968576;28;20287;-85
2022/05/11 10:44:45;;;;;;;2.60;1.45;;;;;;;29.57;26.78;94061.72;4977131;28;20359;-85
2022/05/11 10:47:42;;;;;;;1.40;1.23;;;;;;;30.68;25.38;94061.03;4988826;28;20219;-83
2022/05/11 10:50:32;;;;;;;1.60;1.25;;;;;;;30.40;26.30;94044.44;4991005;28;20247;-84
2022/05/11 10:53:38;;;;;;;1.42;1.33;;;;;;;32.18;24.00;94055.22;4980535;28;20619;-84
2022/05/11 10:56:25;;;;;;;2.70;1.40;;;;;;;30.95;24.35;94045.03;4976787;28;20282;-85
2022/05/11 10:59:32;;;;;;;1.35;1.25;;;;;;;29.87;25.33;94038.69;4971044;28;20267;-84
2022/05/11 11:02:34;;;;;;;2.35;1.10;;;;;;;30.82;24.28;94029.88;4937363;29;20259;-85
2022/05/11 11:05:18;;;;;;;1.27;1.10;;;;;;;32.82;23.19;94048.09;4955108;28;20208;-84
2022/05/11 11:08:05;;;;;;;3.15;1.38;;;;;;;30.51;24.75;94031.41;4976264;28;20247;-84
2022/05/11 11:10:59;;;;;;;4.30;1.67;;;;;;;30.75;24.27;94037.13;4958055;28;20292;-84
2022/05/11 11:13:54;;;;;;;4.22;1.10;;;;;;;31.38;23.43;94025.31;4971316;28;20498;-85
2022/05/11 11:16:41;;;;;;;1.83;1.20;;;;;;;32.45;22.49;94033.22;4956854;28;20353;-85
2022/05/11 11:19:26;;;;;;;1.50;1.17;;;;;;;31.23;22.95;94024.66;4970957;28;20215;-85
2022/05/11 11:22:10;;;;;;;2.58;1.33;;;;;;;30.92;23.48;94015.38;4955244;28;20814;-85
2022/05/11 11:25:10;;;;;;;2.05;1.17;;;;;;;32.17;22.74;94024.03;4969984;28;20383;-84
2022/05/11 11:28:09;;;;;;;3.70;1.20;;;;;;;33.48;21.61;94016.06;4963624;28;20277;-84
2022/05/11 11:30:59;;;;;;;6.40;1.73;;;;;;;33.00;22.28;94012.31;4957430;28;20687;-85
2022/05/11 11:33:54;;;;;;;3.40;1.30;;;;;;;31.43;22.84;94006.44;4955924;28;20201;-83
2022/05/11 11:36:40;;;;;;;2.25;1.30;;;;;;;31.23;23.07;94012.38;4950977;29;20272;-85
2022/05/11 11:39:56;;;;;;;3.92;1.50;;;;;;;32.84;21.23;93992.16;4966408;28;20256;-80
2022/05/11 11:42:45;;;;;;;3.50;1.30;;;;;;;34.09;20.96;93995.50;4981117;28;20207;-83
2022/05/11 11:45:50;;;;;;;5.68;1.20;;;;;;;33.64;20.37;93986.75;4979676;28;20232;-85
2022/05/11 11:48:35;;;;;;;2.45;1.50;;;;;;;32.58;22.66;93995.38;4971145;28;20204;-86
2022/05/11 11:51:52;;;;;;;2.08;1.20;;;;;;;34.17;21.18;93985.94;4947540;28;20269;-85
2022/05/11 11:54:39;;;;;;;1.20;1.10;;;;;;;35.59;19.40;93987.50;4969192;28;20263;-84
2022/05/11 11:57:23;;;;;;;3.03;1.20;;;;;;;34.56;20.04;93989.63;4939617;28;20201;-84
2022/05/11 12:00:20;;;;;;;2.88;1.50;;;;;;;34.75;19.16;93987.09;4965271;28;20547;-83
2022/05/11 12:03:23;;;;;;;2.97;1.40;;;;;;;33.49;22.04;93973.91;4950680;28;20195;-85
2022/05/11 12:15:25;;;;;;;2.47;1.40;;;;;;;35.38;18.88;93966.09;4981085;28;20590;-82
2022/05/11 12:18:25;;;;;;;1.13;1.00;;;;;;;37.43;17.43;93960.78;4969585;28;20256;-81
2022/05/11 12:21:31;;;;;;;1.65;1.42;;;;;;;33.82;19.30;93963.25;4967902;28;20231;-82
2022/05/11 12:24:25;;;;;;;3.95;1.25;;;;;;;34.16;20.07;93953.22;4941061;28;20235;-84
2022/05/11 12:27:22;;;;;;;1.67;1.10;;;;;;;34.93;18.75;93945.22;4951845;28;20205;-83
2022/05/11 12:30:16;;;;;;;3.42;1.73;;;;;;;34.70;18.85;93954.41;4969241;28;20200;-84
2022/05/11 12:33:04;;;;;;;1.50;1.30;;;;;;;34.70;19.45;93948.59;4977839;28;20251;-80
2022/05/11 12:35:49;;;;;;;3.03;1.55;;;;;;;36.01;18.43;93935.47;4953154;28;20658;-79
2022/05/11 12:38:39;;;;;;;2.13;1.33;;;;;;;35.72;17.89;93947.13;4964662;28;20195;-83
2022/05/11 12:41:24;;;;;;;4.95;1.38;;;;;;;35.77;18.14;93936.09;4970488;28;20720;-83
2022/05/11 12:44:14;;;;;;;3.03;1.90;;;;;;;34.77;19.25;93926.63;4978651;28;20192;-83
2022/05/11 12:47:01;;;;;;;4.28;1.20;;;;;;;34.97;19.23;93921.84;4948804;28;20212;-82
2022/05/11 12:49:47;;;;;;;1.60;1.42;;;;;;;37.09;16.90;93934.00;4970346;28;20507;-83
2022/05/11 12:52:32;;;;;;;2.30;1.05;;;;;;;37.25;16.52;93921.84;4967130;28;20244;-82
2022/05/11 12:55:26;;;;;;;9.35;1.70;;;;;;;37.23;16.81;93927.03;4969239;28;20216;-82
2022/05/11 12:58:18;;;;;;;4.28;1.45;;;;;;;38.20;16.22;93918.09;4968624;28;20216;-82
2022/05/11 13:01:05;;;;;;;2.08;1.30;;;;;;;37.52;16.53;93912.25;4968802;28;20228;-81
2022/05/11 13:03:51;;;;;;;3.45;1.30;;;;;;;37.22;16.75;93911.69;4976834;28;20708;-82
2022/05/11 13:06:38;;;;;;;4.07;1.27;;;;;;;39.21;15.93;93907.88;4975595;28;20200;-82
2022/05/11 13:09:39;;;;;;;3.72;1.50;;;;;;;37.61;16.77;93904.66;4955868;28;20250;-82
2022/05/11 13:12:25;;;;;;;4.22;1.15;;;;;;;38.38;15.87;93902.81;4971959;28;20258;-81
2022/05/11 13:15:10;;;;;;;1.77;1.15;;;;;;;38.13;15.75;93916.16;4984289;28;20250;-82
2022/05/11 13:17:54;;;;;;;1.88;1.23;;;;;;;39.49;15.07;93903.16;4981726;28;20204;-82
2022/05/11 13:20:42;;;;;;;3.20;1.20;;;;;;;38.25;15.55;93895.25;4949462;28;20216;-82
2022/05/11 13:23:50;;;;;;;1.67;1.13;;;;;;;37.92;16.40;93899.25;4953517;28;20266;-81
2022/05/11 13:26:45;;;;;;;2.25;1.05;;;;;;;39.79;15.25;93896.06;4971038;28;20529;-82
2022/05/11 13:29:29;;;;;;;2.80;1.30;;;;;;;39.85;15.29;93887.03;4972891;28;20336;-83
2022/05/11 13:32:24;;;;;;;3.97;1.50;;;;;;;37.87;16.35;93889.19;4971978;28;20427;-81
2022/05/11 13:35:23;;;;;;;4.57;1.35;;;;;;;38.44;15.15;93869.69;4971706;28;20640;-81
2022/05/11 13:38:09;;;;;;;4.78;1.48;;;;;;;38.98;15.72;93880.91;4952030;29;20303;-81
2022/05/11 13:40:53;;;;;;;2.67;1.67;;;;;;;38.96;15.72;93878.06;4952700;28;20270;-81
2022/05/11 13:43:53;;;;;;;3.90;1.58;;;;;;;39.12;15.48;93871.59;4974267;28;20688;-82
2022/05/11 13:49:48;;;;;;;3.45;1.45;;;;;;;39.10;16.21;93854.06;4953179;29;20209;-80
2022/05/11 13:52:39;;;;;;;3.47;1.10;;;;;;;38.60;15.65;93863.25;4962823;28;20220;-81
2022/05/11 13:55:33;;;;;;;2.28;1.00;;;;;;;40.00;14.96;93866.56;4977208;28;20421;-81